Decoded Metar for RJTY (YOKOTA in JAPAN) (IATA:OKO) | Meteo·Mobile Aviation Weather
aviador You're here:

RJTY Decoded Metar

YOKOTA in JAPAN
Report Time2018-10-22 09:56:00
UTC Time2018-10-22 10:16:27
Flight Rules vfr VFR
Wind290° at 06 kt
W.Decomp.*RWY 36: 2.6 kt HW 5.4 kt LCW
W.Rank290° ranks 20
Current wind is above 290° avg. (3.7)
Visibility9999 m
Phenomena:N/A
Clouds:N/A
Expected CloudBase > 3,200 ft AGL from Temp-Dew spread
CeilingNone
Temp15°C (ISA +1)
Dew Point07°C (59% RH)
AAT12.2°C
QNH1025 hPa
Density Alt299 ft
Elevation456 ft
Report Wrong Elevation
Raw Report
RJTY 220956Z AUTO 29006KT 10SM CLR 15/07 A3027 RMK AO2 SLP255
T01500070 FZRANO $=

Extra information for RJTY:More info

Metar Taf Metar & Taf Last 4 Metars F.Rules Stats Wind Profile Meteogram Temp Stats Airport Information Weather charts Add Link Nearby VenuesMetar ALERT Operation Metar Decoded Social comments